sensor_id;sensor_type;location;lat;lon;timestamp;P1;durP1;ratioP1;P2;durP2;ratioP2
16478;SDS011;8350;52.316;10.530;2022-08-19T00:01:34;11.80;;;10.73;;
16478;SDS011;8350;52.316;10.530;2022-08-19T00:04:03;10.10;;;9.20;;
16478;SDS011;8350;52.316;10.530;2022-08-19T00:06:33;13.40;;;9.68;;
16478;SDS011;8350;52.316;10.530;2022-08-19T00:09:02;11.68;;;10.05;;
16478;SDS011;8350;52.316;10.530;2022-08-19T00:11:30;11.45;;;10.30;;
16478;SDS011;8350;52.316;10.530;2022-08-19T00:13:58;11.20;;;9.82;;
16478;SDS011;8350;52.316;10.530;2022-08-19T00:16:25;11.88;;;10.45;;
16478;SDS011;8350;52.316;10.530;2022-08-19T00:18:54;13.25;;;10.40;;
16478;SDS011;8350;52.316;10.530;2022-08-19T00:21:22;12.15;;;10.95;;
16478;SDS011;8350;52.316;10.530;2022-08-19T00:23:49;11.95;;;10.77;;
16478;SDS011;8350;52.316;10.530;2022-08-19T00:26:18;12.93;;;10.98;;
16478;SDS011;8350;52.316;10.530;2022-08-19T00:28:45;12.27;;;10.05;;
16478;SDS011;8350;52.316;10.530;2022-08-19T00:31:12;10.27;;;9.07;;
16478;SDS011;8350;52.316;10.530;2022-08-19T00:33:41;11.10;;;9.98;;
16478;SDS011;8350;52.316;10.530;2022-08-19T00:36:10;10.90;;;9.93;;
16478;SDS011;8350;52.316;10.530;2022-08-19T00:38:38;12.52;;;11.18;;
16478;SDS011;8350;52.316;10.530;2022-08-19T00:41:08;12.38;;;10.45;;
16478;SDS011;8350;52.316;10.530;2022-08-19T00:43:35;11.98;;;10.70;;
16478;SDS011;8350;52.316;10.530;2022-08-19T00:46:07;12.85;;;10.75;;
16478;SDS011;8350;52.316;10.530;2022-08-19T00:48:35;13.77;;;10.15;;
16478;SDS011;8350;52.316;10.530;2022-08-19T00:51:02;11.35;;;10.25;;
16478;SDS011;8350;52.316;10.530;2022-08-19T00:53:32;10.90;;;9.80;;
16478;SDS011;8350;52.316;10.530;2022-08-19T00:56:00;11.32;;;10.27;;
16478;SDS011;8350;52.316;10.530;2022-08-19T00:58:31;11.52;;;10.32;;
16478;SDS011;8350;52.316;10.530;2022-08-19T01:01:01;10.05;;;9.15;;
16478;SDS011;8350;52.316;10.530;2022-08-19T01:03:28;10.52;;;9.52;;
16478;SDS011;8350;52.316;10.530;2022-08-19T01:05:55;10.18;;;9.38;;
16478;SDS011;8350;52.316;10.530;2022-08-19T01:08:22;9.68;;;8.65;;
16478;SDS011;8350;52.316;10.530;2022-08-19T01:10:53;9.40;;;8.48;;
16478;SDS011;8350;52.316;10.530;2022-08-19T01:13:24;10.32;;;8.98;;
16478;SDS011;8350;52.316;10.530;2022-08-19T01:15:54;9.85;;;8.85;;
16478;SDS011;8350;52.316;10.530;2022-08-19T01:18:30;11.07;;;10.00;;
16478;SDS011;8350;52.316;10.530;2022-08-19T01:21:03;11.07;;;10.07;;
16478;SDS011;8350;52.316;10.530;2022-08-19T01:23:37;9.70;;;8.80;;
16478;SDS011;8350;52.316;10.530;2022-08-19T01:26:10;13.00;;;10.10;;
16478;SDS011;8350;52.316;10.530;2022-08-19T01:28:40;11.50;;;9.93;;
16478;SDS011;8350;52.316;10.530;2022-08-19T01:31:08;12.20;;;9.02;;
16478;SDS011;8350;52.316;10.530;2022-08-19T01:33:43;10.10;;;9.30;;
16478;SDS011;8350;52.316;10.530;2022-08-19T01:36:12;9.70;;;8.65;;
16478;SDS011;8350;52.316;10.530;2022-08-19T01:38:44;9.65;;;8.82;;
16478;SDS011;8350;52.316;10.530;2022-08-19T01:41:12;9.45;;;8.65;;
16478;SDS011;8350;52.316;10.530;2022-08-19T01:43:39;10.45;;;9.40;;
16478;SDS011;8350;52.316;10.530;2022-08-19T01:46:06;10.13;;;9.20;;
16478;SDS011;8350;52.316;10.530;2022-08-19T01:48:34;9.65;;;8.70;;
16478;SDS011;8350;52.316;10.530;2022-08-19T01:51:01;10.77;;;9.50;;
16478;SDS011;8350;52.316;10.530;2022-08-19T01:53:30;9.98;;;8.98;;
16478;SDS011;8350;52.316;10.530;2022-08-19T01:55:59;11.00;;;9.23;;
16478;SDS011;8350;52.316;10.530;2022-08-19T01:58:29;9.60;;;8.63;;
16478;SDS011;8350;52.316;10.530;2022-08-19T02:00:58;9.55;;;8.65;;
16478;SDS011;8350;52.316;10.530;2022-08-19T02:03:25;10.82;;;9.70;;
16478;SDS011;8350;52.316;10.530;2022-08-19T02:05:55;10.20;;;9.13;;
16478;SDS011;8350;52.316;10.530;2022-08-19T02:08:24;10.75;;;9.73;;
16478;SDS011;8350;52.316;10.530;2022-08-19T02:10:51;10.15;;;9.13;;
16478;SDS011;8350;52.316;10.530;2022-08-19T02:13:20;10.10;;;9.15;;
16478;SDS011;8350;52.316;10.530;2022-08-19T02:15:47;10.40;;;9.10;;
16478;SDS011;8350;52.316;10.530;2022-08-19T02:18:14;10.90;;;9.98;;
16478;SDS011;8350;52.316;10.530;2022-08-19T02:20:43;14.18;;;9.57;;
16478;SDS011;8350;52.316;10.530;2022-08-19T02:23:12;10.32;;;9.40;;
16478;SDS011;8350;52.316;10.530;2022-08-19T02:25:44;10.93;;;9.82;;
16478;SDS011;8350;52.316;10.530;2022-08-19T02:28:13;10.68;;;9.45;;
16478;SDS011;8350;52.316;10.530;2022-08-19T02:30:45;10.57;;;9.48;;
16478;SDS011;8350;52.316;10.530;2022-08-19T02:33:13;9.95;;;9.02;;
16478;SDS011;8350;52.316;10.530;2022-08-19T02:35:40;10.20;;;9.30;;
16478;SDS011;8350;52.316;10.530;2022-08-19T02:38:09;9.95;;;9.05;;
16478;SDS011;8350;52.316;10.530;2022-08-19T02:40:52;9.45;;;8.65;;
16478;SDS011;8350;52.316;10.530;2022-08-19T02:43:19;9.68;;;8.85;;
16478;SDS011;8350;52.316;10.530;2022-08-19T02:45:49;11.10;;;9.60;;
16478;SDS011;8350;52.316;10.530;2022-08-19T02:48:25;11.60;;;10.00;;
16478;SDS011;8350;52.316;10.530;2022-08-19T02:50:52;11.52;;;10.27;;
16478;SDS011;8350;52.316;10.530;2022-08-19T02:53:21;11.68;;;10.40;;
16478;SDS011;8350;52.316;10.530;2022-08-19T02:55:49;11.93;;;10.70;;
16478;SDS011;8350;52.316;10.530;2022-08-19T02:58:17;13.02;;;10.27;;
16478;SDS011;8350;52.316;10.530;2022-08-19T03:00:45;10.75;;;9.65;;
16478;SDS011;8350;52.316;10.530;2022-08-19T03:03:16;10.85;;;9.75;;
16478;SDS011;8350;52.316;10.530;2022-08-19T03:05:49;11.18;;;10.02;;
16478;SDS011;8350;52.316;10.530;2022-08-19T03:08:16;11.80;;;10.60;;
16478;SDS011;8350;52.316;10.530;2022-08-19T03:10:44;12.30;;;10.45;;
16478;SDS011;8350;52.316;10.530;2022-08-19T03:13:12;11.38;;;10.23;;
16478;SDS011;8350;52.316;10.530;2022-08-19T03:15:41;11.15;;;10.15;;
16478;SDS011;8350;52.316;10.530;2022-08-19T03:18:12;13.88;;;10.63;;
16478;SDS011;8350;52.316;10.530;2022-08-19T03:20:42;12.77;;;11.30;;
16478;SDS011;8350;52.316;10.530;2022-08-19T03:23:10;11.13;;;9.75;;
16478;SDS011;8350;52.316;10.530;2022-08-19T03:25:39;10.98;;;9.80;;
16478;SDS011;8350;52.316;10.530;2022-08-19T03:30:40;10.32;;;9.38;;
16478;SDS011;8350;52.316;10.530;2022-08-19T03:33:10;11.30;;;9.93;;
16478;SDS011;8350;52.316;10.530;2022-08-19T03:35:37;13.02;;;10.32;;
16478;SDS011;8350;52.316;10.530;2022-08-19T03:38:06;11.50;;;10.30;;
16478;SDS011;8350;52.316;10.530;2022-08-19T03:40:41;12.15;;;9.75;;
16478;SDS011;8350;52.316;10.530;2022-08-19T03:43:08;10.88;;;9.88;;
16478;SDS011;8350;52.316;10.530;2022-08-19T03:45:35;10.23;;;9.35;;
16478;SDS011;8350;52.316;10.530;2022-08-19T03:48:09;11.35;;;9.30;;
16478;SDS011;8350;52.316;10.530;2022-08-19T03:50:38;11.85;;;10.38;;
16478;SDS011;8350;52.316;10.530;2022-08-19T03:53:06;11.80;;;10.55;;
16478;SDS011;8350;52.316;10.530;2022-08-19T03:55:38;12.65;;;10.52;;
16478;SDS011;8350;52.316;10.530;2022-08-19T03:58:06;13.13;;;10.90;;
16478;SDS011;8350;52.316;10.530;2022-08-19T04:00:33;12.57;;;10.65;;
16478;SDS011;8350;52.316;10.530;2022-08-19T04:03:00;16.85;;;11.63;;
16478;SDS011;8350;52.316;10.530;2022-08-19T04:05:27;11.63;;;10.25;;
16478;SDS011;8350;52.316;10.530;2022-08-19T04:07:55;12.30;;;11.10;;
16478;SDS011;8350;52.316;10.530;2022-08-19T04:10:25;13.35;;;10.98;;
16478;SDS011;8350;52.316;10.530;2022-08-19T04:12:52;11.48;;;10.32;;
16478;SDS011;8350;52.316;10.530;2022-08-19T04:15:21;13.02;;;11.65;;
16478;SDS011;8350;52.316;10.530;2022-08-19T04:17:48;16.10;;;11.32;;
16478;SDS011;8350;52.316;10.530;2022-08-19T04:20:15;12.95;;;11.55;;
16478;SDS011;8350;52.316;10.530;2022-08-19T04:22:44;11.73;;;9.85;;
16478;SDS011;8350;52.316;10.530;2022-08-19T04:25:20;11.38;;;10.05;;
16478;SDS011;8350;52.316;10.530;2022-08-19T04:27:55;13.73;;;10.90;;
16478;SDS011;8350;52.316;10.530;2022-08-19T04:30:23;11.52;;;10.48;;
16478;SDS011;8350;52.316;10.530;2022-08-19T04:32:50;12.05;;;11.00;;
16478;SDS011;8350;52.316;10.530;2022-08-19T04:35:17;14.27;;;11.43;;
16478;SDS011;8350;52.316;10.530;2022-08-19T04:37:44;11.98;;;10.93;;
16478;SDS011;8350;52.316;10.530;2022-08-19T04:40:11;12.05;;;10.75;;
16478;SDS011;8350;52.316;10.530;2022-08-19T04:42:56;12.93;;;11.55;;
16478;SDS011;8350;52.316;10.530;2022-08-19T04:45:23;13.52;;;10.52;;
16478;SDS011;8350;52.316;10.530;2022-08-19T04:47:56;12.88;;;10.90;;
16478;SDS011;8350;52.316;10.530;2022-08-19T04:50:23;11.82;;;10.63;;
16478;SDS011;8350;52.316;10.530;2022-08-19T04:52:50;11.27;;;10.15;;
16478;SDS011;8350;52.316;10.530;2022-08-19T04:55:18;10.50;;;9.50;;
16478;SDS011;8350;52.316;10.530;2022-08-19T04:57:46;12.10;;;10.18;;
16478;SDS011;8350;52.316;10.530;2022-08-19T05:00:15;11.32;;;10.13;;
16478;SDS011;8350;52.316;10.530;2022-08-19T05:02:42;10.63;;;9.55;;
16478;SDS011;8350;52.316;10.530;2022-08-19T05:05:09;11.27;;;10.25;;
16478;SDS011;8350;52.316;10.530;2022-08-19T05:07:37;11.30;;;10.30;;
16478;SDS011;8350;52.316;10.530;2022-08-19T05:10:06;11.63;;;10.00;;
16478;SDS011;8350;52.316;10.530;2022-08-19T05:12:33;11.15;;;10.13;;
16478;SDS011;8350;52.316;10.530;2022-08-19T05:15:01;11.90;;;10.80;;
16478;SDS011;8350;52.316;10.530;2022-08-19T05:17:31;10.50;;;9.40;;
16478;SDS011;8350;52.316;10.530;2022-08-19T05:19:58;13.20;;;10.85;;
16478;SDS011;8350;52.316;10.530;2022-08-19T05:22:43;11.40;;;10.30;;
16478;SDS011;8350;52.316;10.530;2022-08-19T05:25:13;12.90;;;11.15;;
16478;SDS011;8350;52.316;10.530;2022-08-19T05:27:43;12.68;;;11.48;;
16478;SDS011;8350;52.316;10.530;2022-08-19T05:30:10;14.73;;;12.55;;
16478;SDS011;8350;52.316;10.530;2022-08-19T05:32:39;12.90;;;11.60;;
16478;SDS011;8350;52.316;10.530;2022-08-19T05:35:07;12.10;;;10.90;;
16478;SDS011;8350;52.316;10.530;2022-08-19T05:37:34;12.82;;;11.52;;
16478;SDS011;8350;52.316;10.530;2022-08-19T05:40:01;13.30;;;11.93;;
16478;SDS011;8350;52.316;10.530;2022-08-19T05:42:28;13.43;;;12.05;;
16478;SDS011;8350;52.316;10.530;2022-08-19T05:44:55;13.32;;;12.02;;
16478;SDS011;8350;52.316;10.530;2022-08-19T05:47:22;13.63;;;11.60;;
16478;SDS011;8350;52.316;10.530;2022-08-19T05:49:50;13.95;;;12.52;;
16478;SDS011;8350;52.316;10.530;2022-08-19T05:52:18;12.27;;;10.65;;
16478;SDS011;8350;52.316;10.530;2022-08-19T05:54:46;12.43;;;11.23;;
16478;SDS011;8350;52.316;10.530;2022-08-19T05:57:15;11.55;;;10.50;;
16478;SDS011;8350;52.316;10.530;2022-08-19T05:59:44;13.93;;;10.50;;
16478;SDS011;8350;52.316;10.530;2022-08-19T06:02:15;11.75;;;10.55;;
16478;SDS011;8350;52.316;10.530;2022-08-19T06:04:42;12.43;;;11.23;;
16478;SDS011;8350;52.316;10.530;2022-08-19T06:07:10;13.00;;;11.77;;
16478;SDS011;8350;52.316;10.530;2022-08-19T06:09:37;12.50;;;11.25;;
16478;SDS011;8350;52.316;10.530;2022-08-19T06:12:04;12.60;;;11.35;;
16478;SDS011;8350;52.316;10.530;2022-08-19T06:14:32;12.18;;;10.85;;
16478;SDS011;8350;52.316;10.530;2022-08-19T06:17:01;11.60;;;10.40;;
16478;SDS011;8350;52.316;10.530;2022-08-19T06:19:29;12.13;;;10.93;;
16478;SDS011;8350;52.316;10.530;2022-08-19T06:21:57;13.90;;;11.15;;
16478;SDS011;8350;52.316;10.530;2022-08-19T06:24:27;11.20;;;10.07;;
16478;SDS011;8350;52.316;10.530;2022-08-19T06:26:57;10.40;;;9.40;;
16478;SDS011;8350;52.316;10.530;2022-08-19T06:29:24;12.23;;;10.35;;
16478;SDS011;8350;52.316;10.530;2022-08-19T06:32:02;10.75;;;9.68;;
16478;SDS011;8350;52.316;10.530;2022-08-19T06:34:30;10.25;;;9.20;;
16478;SDS011;8350;52.316;10.530;2022-08-19T06:37:00;10.35;;;9.35;;
16478;SDS011;8350;52.316;10.530;2022-08-19T06:39:43;12.25;;;9.40;;
16478;SDS011;8350;52.316;10.530;2022-08-19T06:42:11;9.85;;;8.88;;
16478;SDS011;8350;52.316;10.530;2022-08-19T06:44:41;10.23;;;9.23;;
16478;SDS011;8350;52.316;10.530;2022-08-19T06:47:11;8.85;;;7.95;;
16478;SDS011;8350;52.316;10.530;2022-08-19T06:49:40;9.23;;;7.65;;
16478;SDS011;8350;52.316;10.530;2022-08-19T06:52:08;8.85;;;7.85;;
16478;SDS011;8350;52.316;10.530;2022-08-19T06:54:37;9.05;;;8.15;;
16478;SDS011;8350;52.316;10.530;2022-08-19T06:57:05;8.05;;;7.38;;
16478;SDS011;8350;52.316;10.530;2022-08-19T06:59:34;7.78;;;6.80;;
16478;SDS011;8350;52.316;10.530;2022-08-19T07:02:03;7.63;;;6.85;;
16478;SDS011;8350;52.316;10.530;2022-08-19T07:04:32;8.80;;;7.78;;
16478;SDS011;8350;52.316;10.530;2022-08-19T07:07:02;7.43;;;6.70;;
16478;SDS011;8350;52.316;10.530;2022-08-19T07:09:33;7.43;;;6.68;;
16478;SDS011;8350;52.316;10.530;2022-08-19T07:12:03;8.77;;;7.30;;
16478;SDS011;8350;52.316;10.530;2022-08-19T07:14:37;7.93;;;7.25;;
16478;SDS011;8350;52.316;10.530;2022-08-19T07:17:07;8.55;;;7.65;;
16478;SDS011;8350;52.316;10.530;2022-08-19T07:19:37;8.35;;;7.50;;
16478;SDS011;8350;52.316;10.530;2022-08-19T07:22:07;7.95;;;7.25;;
16478;SDS011;8350;52.316;10.530;2022-08-19T07:24:36;9.10;;;6.78;;
16478;SDS011;8350;52.316;10.530;2022-08-19T07:27:04;7.95;;;6.88;;
16478;SDS011;8350;52.316;10.530;2022-08-19T07:29:34;6.90;;;6.30;;
16478;SDS011;8350;52.316;10.530;2022-08-19T07:32:03;7.13;;;6.47;;
16478;SDS011;8350;52.316;10.530;2022-08-19T07:34:30;8.20;;;7.30;;
16478;SDS011;8350;52.316;10.530;2022-08-19T07:36:59;7.53;;;6.78;;
16478;SDS011;8350;52.316;10.530;2022-08-19T07:39:27;8.27;;;7.03;;
16478;SDS011;8350;52.316;10.530;2022-08-19T07:41:57;8.60;;;6.93;;
16478;SDS011;8350;52.316;10.530;2022-08-19T07:44:25;7.53;;;6.72;;
16478;SDS011;8350;52.316;10.530;2022-08-19T07:46:54;6.75;;;6.15;;
16478;SDS011;8350;52.316;10.530;2022-08-19T07:49:23;6.30;;;5.78;;
16478;SDS011;8350;52.316;10.530;2022-08-19T07:51:54;7.10;;;6.50;;
16478;SDS011;8350;52.316;10.530;2022-08-19T07:54:23;7.43;;;6.70;;
16478;SDS011;8350;52.316;10.530;2022-08-19T07:56:53;8.48;;;6.45;;
16478;SDS011;8350;52.316;10.530;2022-08-19T07:59:20;8.55;;;5.85;;
16478;SDS011;8350;52.316;10.530;2022-08-19T08:01:47;7.32;;;6.60;;
16478;SDS011;8350;52.316;10.530;2022-08-19T08:04:16;6.90;;;6.30;;
16478;SDS011;8350;52.316;10.530;2022-08-19T08:07:02;6.80;;;6.07;;
16478;SDS011;8350;52.316;10.530;2022-08-19T08:09:46;7.65;;;6.32;;
16478;SDS011;8350;52.316;10.530;2022-08-19T08:12:16;6.82;;;5.60;;
16478;SDS011;8350;52.316;10.530;2022-08-19T08:14:51;6.97;;;6.28;;
16478;SDS011;8350;52.316;10.530;2022-08-19T08:17:21;7.25;;;6.65;;
16478;SDS011;8350;52.316;10.530;2022-08-19T08:19:51;6.93;;;6.22;;
16478;SDS011;8350;52.316;10.530;2022-08-19T08:22:20;9.88;;;8.10;;
16478;SDS011;8350;52.316;10.530;2022-08-19T08:25:08;8.80;;;7.15;;
16478;SDS011;8350;52.316;10.530;2022-08-19T08:27:36;11.93;;;8.45;;
16478;SDS011;8350;52.316;10.530;2022-08-19T08:30:06;6.95;;;5.90;;
16478;SDS011;8350;52.316;10.530;2022-08-19T08:32:34;6.05;;;5.55;;
16478;SDS011;8350;52.316;10.530;2022-08-19T08:35:03;6.80;;;5.32;;
16478;SDS011;8350;52.316;10.530;2022-08-19T08:37:31;6.60;;;5.60;;
16478;SDS011;8350;52.316;10.530;2022-08-19T08:39:58;8.05;;;5.15;;
16478;SDS011;8350;52.316;10.530;2022-08-19T08:42:27;5.85;;;5.45;;
16478;SDS011;8350;52.316;10.530;2022-08-19T08:44:58;6.95;;;5.53;;
16478;SDS011;8350;52.316;10.530;2022-08-19T08:50:08;6.93;;;6.10;;
16478;SDS011;8350;52.316;10.530;2022-08-19T08:52:41;6.60;;;5.05;;
16478;SDS011;8350;52.316;10.530;2022-08-19T08:55:19;6.03;;;5.40;;
16478;SDS011;8350;52.316;10.530;2022-08-19T08:57:51;5.40;;;4.95;;
16478;SDS011;8350;52.316;10.530;2022-08-19T09:00:22;6.40;;;5.50;;
16478;SDS011;8350;52.316;10.530;2022-08-19T09:02:54;5.60;;;5.18;;
16478;SDS011;8350;52.316;10.530;2022-08-19T09:05:24;5.45;;;4.93;;
16478;SDS011;8350;52.316;10.530;2022-08-19T09:07:57;6.28;;;4.85;;
16478;SDS011;8350;52.316;10.530;2022-08-19T09:10:37;5.30;;;4.80;;
16478;SDS011;8350;52.316;10.530;2022-08-19T09:13:07;5.53;;;5.03;;
16478;SDS011;8350;52.316;10.530;2022-08-19T09:15:39;4.78;;;4.22;;
16478;SDS011;8350;52.316;10.530;2022-08-19T09:18:09;5.75;;;4.88;;
16478;SDS011;8350;52.316;10.530;2022-08-19T09:20:41;5.30;;;4.90;;
16478;SDS011;8350;52.316;10.530;2022-08-19T09:23:08;6.32;;;4.55;;
16478;SDS011;8350;52.316;10.530;2022-08-19T09:25:36;5.78;;;4.78;;
16478;SDS011;8350;52.316;10.530;2022-08-19T09:28:05;5.28;;;4.88;;
16478;SDS011;8350;52.316;10.530;2022-08-19T09:30:33;4.55;;;4.15;;
16478;SDS011;8350;52.316;10.530;2022-08-19T09:33:16;4.80;;;4.40;;
16478;SDS011;8350;52.316;10.530;2022-08-19T09:35:47;5.45;;;4.95;;
16478;SDS011;8350;52.316;10.530;2022-08-19T09:38:14;6.43;;;5.78;;
16478;SDS011;8350;52.316;10.530;2022-08-19T09:40:42;5.10;;;4.60;;
16478;SDS011;8350;52.316;10.530;2022-08-19T09:43:09;6.80;;;6.20;;
16478;SDS011;8350;52.316;10.530;2022-08-19T09:45:36;6.22;;;5.68;;
16478;SDS011;8350;52.316;10.530;2022-08-19T09:48:03;7.40;;;6.72;;
16478;SDS011;8350;52.316;10.530;2022-08-19T09:50:31;6.68;;;6.07;;
16478;SDS011;8350;52.316;10.530;2022-08-19T09:53:02;9.68;;;7.50;;
16478;SDS011;8350;52.316;10.530;2022-08-19T09:55:31;6.80;;;6.20;;
16478;SDS011;8350;52.316;10.530;2022-08-19T09:57:58;6.15;;;5.50;;
16478;SDS011;8350;52.316;10.530;2022-08-19T10:00:33;6.68;;;6.07;;
16478;SDS011;8350;52.316;10.530;2022-08-19T10:03:02;7.07;;;6.40;;
16478;SDS011;8350;52.316;10.530;2022-08-19T10:05:29;9.27;;;7.65;;
16478;SDS011;8350;52.316;10.530;2022-08-19T10:08:21;7.72;;;6.97;;
16478;SDS011;8350;52.316;10.530;2022-08-19T10:10:49;9.82;;;8.93;;
16478;SDS011;8350;52.316;10.530;2022-08-19T10:13:23;9.50;;;8.70;;
16478;SDS011;8350;52.316;10.530;2022-08-19T10:16:02;9.38;;;8.57;;
16478;SDS011;8350;52.316;10.530;2022-08-19T10:18:32;7.72;;;7.03;;
16478;SDS011;8350;52.316;10.530;2022-08-19T10:21:04;7.97;;;7.28;;
16478;SDS011;8350;52.316;10.530;2022-08-19T10:23:37;7.05;;;6.50;;
16478;SDS011;8350;52.316;10.530;2022-08-19T10:26:09;7.88;;;7.18;;
16478;SDS011;8350;52.316;10.530;2022-08-19T10:28:37;7.63;;;6.93;;
16478;SDS011;8350;52.316;10.530;2022-08-19T10:31:10;8.65;;;6.85;;
16478;SDS011;8350;52.316;10.530;2022-08-19T10:33:39;8.30;;;6.95;;
16478;SDS011;8350;52.316;10.530;2022-08-19T10:36:07;7.18;;;6.50;;
16478;SDS011;8350;52.316;10.530;2022-08-19T10:38:38;6.95;;;6.25;;
16478;SDS011;8350;52.316;10.530;2022-08-19T10:41:09;7.97;;;7.20;;
16478;SDS011;8350;52.316;10.530;2022-08-19T10:43:38;8.52;;;7.70;;
16478;SDS011;8350;52.316;10.530;2022-08-19T10:46:05;7.10;;;6.50;;
16478;SDS011;8350;52.316;10.530;2022-08-19T10:48:33;8.57;;;6.80;;
16478;SDS011;8350;52.316;10.530;2022-08-19T10:51:00;8.65;;;7.85;;
16478;SDS011;8350;52.316;10.530;2022-08-19T10:53:46;7.88;;;7.18;;
16478;SDS011;8350;52.316;10.530;2022-08-19T10:56:13;8.25;;;7.43;;
16478;SDS011;8350;52.316;10.530;2022-08-19T10:58:58;7.53;;;6.82;;
16478;SDS011;8350;52.316;10.530;2022-08-19T11:01:25;7.43;;;6.82;;
16478;SDS011;8350;52.316;10.530;2022-08-19T11:03:54;7.43;;;6.72;;
16478;SDS011;8350;52.316;10.530;2022-08-19T11:06:22;8.30;;;7.50;;
16478;SDS011;8350;52.316;10.530;2022-08-19T11:08:51;8.35;;;7.03;;
16478;SDS011;8350;52.316;10.530;2022-08-19T11:11:19;8.77;;;7.90;;
16478;SDS011;8350;52.316;10.530;2022-08-19T11:13:52;8.10;;;7.30;;
16478;SDS011;8350;52.316;10.530;2022-08-19T11:16:20;7.25;;;6.65;;
16478;SDS011;8350;52.316;10.530;2022-08-19T11:18:48;7.50;;;6.80;;
16478;SDS011;8350;52.316;10.530;2022-08-19T11:21:20;7.43;;;6.80;;
16478;SDS011;8350;52.316;10.530;2022-08-19T11:23:50;8.20;;;6.13;;
16478;SDS011;8350;52.316;10.530;2022-08-19T11:26:20;7.15;;;6.50;;
16478;SDS011;8350;52.316;10.530;2022-08-19T11:28:48;7.57;;;6.80;;
16478;SDS011;8350;52.316;10.530;2022-08-19T11:31:20;6.78;;;6.28;;
16478;SDS011;8350;52.316;10.530;2022-08-19T11:33:48;6.55;;;6.00;;
16478;SDS011;8350;52.316;10.530;2022-08-19T11:36:19;6.78;;;5.40;;
16478;SDS011;8350;52.316;10.530;2022-08-19T11:38:47;6.63;;;6.00;;
16478;SDS011;8350;52.316;10.530;2022-08-19T11:41:17;6.80;;;5.70;;
16478;SDS011;8350;52.316;10.530;2022-08-19T11:43:48;6.95;;;6.25;;
16478;SDS011;8350;52.316;10.530;2022-08-19T11:46:15;5.72;;;5.28;;
16478;SDS011;8350;52.316;10.530;2022-08-19T11:48:43;5.82;;;5.30;;
16478;SDS011;8350;52.316;10.530;2022-08-19T11:51:11;6.60;;;6.00;;
16478;SDS011;8350;52.316;10.530;2022-08-19T11:53:39;6.63;;;5.82;;
16478;SDS011;8350;52.316;10.530;2022-08-19T11:56:09;5.82;;;5.32;;
16478;SDS011;8350;52.316;10.530;2022-08-19T11:58:39;5.97;;;5.53;;
16478;SDS011;8350;52.316;10.530;2022-08-19T12:01:07;6.75;;;6.20;;
16478;SDS011;8350;52.316;10.530;2022-08-19T12:03:36;6.50;;;5.95;;
16478;SDS011;8350;52.316;10.530;2022-08-19T12:06:04;5.15;;;4.72;;
16478;SDS011;8350;52.316;10.530;2022-08-19T12:08:32;5.25;;;4.75;;
16478;SDS011;8350;52.316;10.530;2022-08-19T12:10:59;6.47;;;5.97;;
16478;SDS011;8350;52.316;10.530;2022-08-19T12:13:27;5.53;;;5.03;;
16478;SDS011;8350;52.316;10.530;2022-08-19T12:15:55;5.80;;;5.30;;
16478;SDS011;8350;52.316;10.530;2022-08-19T12:18:24;5.70;;;5.20;;
16478;SDS011;8350;52.316;10.530;2022-08-19T12:20:51;5.97;;;5.38;;
16478;SDS011;8350;52.316;10.530;2022-08-19T12:23:19;6.60;;;5.97;;
16478;SDS011;8350;52.316;10.530;2022-08-19T12:25:47;6.38;;;5.63;;
16478;SDS011;8350;52.316;10.530;2022-08-19T12:28:17;5.65;;;4.85;;
16478;SDS011;8350;52.316;10.530;2022-08-19T12:30:45;5.35;;;4.57;;
16478;SDS011;8350;52.316;10.530;2022-08-19T12:33:14;5.20;;;4.32;;
16478;SDS011;8350;52.316;10.530;2022-08-19T12:35:41;5.72;;;4.82;;
16478;SDS011;8350;52.316;10.530;2022-08-19T12:38:08;5.25;;;4.50;;
16478;SDS011;8350;52.316;10.530;2022-08-19T12:40:35;5.63;;;5.13;;
16478;SDS011;8350;52.316;10.530;2022-08-19T12:43:11;4.72;;;4.32;;
16478;SDS011;8350;52.316;10.530;2022-08-19T12:45:48;4.70;;;4.40;;
16478;SDS011;8350;52.316;10.530;2022-08-19T12:48:16;4.43;;;4.13;;
16478;SDS011;8350;52.316;10.530;2022-08-19T12:50:43;5.32;;;4.80;;
16478;SDS011;8350;52.316;10.530;2022-08-19T12:53:11;4.22;;;3.83;;
16478;SDS011;8350;52.316;10.530;2022-08-19T12:55:38;4.43;;;4.13;;
16478;SDS011;8350;52.316;10.530;2022-08-19T12:58:05;4.90;;;4.40;;
16478;SDS011;8350;52.316;10.530;2022-08-19T13:00:32;4.55;;;4.25;;
16478;SDS011;8350;52.316;10.530;2022-08-19T13:02:59;5.15;;;4.75;;
16478;SDS011;8350;52.316;10.530;2022-08-19T13:05:29;4.20;;;3.90;;
16478;SDS011;8350;52.316;10.530;2022-08-19T13:07:58;4.78;;;4.45;;
16478;SDS011;8350;52.316;10.530;2022-08-19T13:10:26;5.40;;;5.05;;
16478;SDS011;8350;52.316;10.530;2022-08-19T13:12:56;4.90;;;4.50;;
16478;SDS011;8350;52.316;10.530;2022-08-19T13:15:24;4.60;;;3.97;;
16478;SDS011;8350;52.316;10.530;2022-08-19T13:17:53;4.43;;;4.13;;
16478;SDS011;8350;52.316;10.530;2022-08-19T13:20:36;5.13;;;4.72;;
16478;SDS011;8350;52.316;10.530;2022-08-19T13:23:05;5.82;;;4.22;;
16478;SDS011;8350;52.316;10.530;2022-08-19T13:25:32;4.82;;;4.40;;
16478;SDS011;8350;52.316;10.530;2022-08-19T13:27:59;5.32;;;4.32;;
16478;SDS011;8350;52.316;10.530;2022-08-19T13:30:26;5.03;;;4.65;;
16478;SDS011;8350;52.316;10.530;2022-08-19T13:33:12;4.53;;;4.20;;
16478;SDS011;8350;52.316;10.530;2022-08-19T13:35:42;5.57;;;4.88;;
16478;SDS011;8350;52.316;10.530;2022-08-19T13:38:12;4.70;;;4.30;;
16478;SDS011;8350;52.316;10.530;2022-08-19T13:40:45;4.70;;;4.40;;
16478;SDS011;8350;52.316;10.530;2022-08-19T13:43:13;5.75;;;5.25;;
16478;SDS011;8350;52.316;10.530;2022-08-19T13:45:40;5.30;;;4.90;;
16478;SDS011;8350;52.316;10.530;2022-08-19T13:48:09;5.85;;;5.35;;
16478;SDS011;8350;52.316;10.530;2022-08-19T13:50:38;8.02;;;4.57;;
16478;SDS011;8350;52.316;10.530;2022-08-19T13:53:09;4.18;;;3.90;;
16478;SDS011;8350;52.316;10.530;2022-08-19T13:55:37;4.95;;;4.55;;
16478;SDS011;8350;52.316;10.530;2022-08-19T13:58:04;4.70;;;4.30;;
16478;SDS011;8350;52.316;10.530;2022-08-19T14:00:35;4.88;;;4.47;;
16478;SDS011;8350;52.316;10.530;2022-08-19T14:03:13;5.30;;;4.90;;
16478;SDS011;8350;52.316;10.530;2022-08-19T14:05:46;4.70;;;4.25;;
16478;SDS011;8350;52.316;10.530;2022-08-19T14:08:14;5.43;;;4.97;;
16478;SDS011;8350;52.316;10.530;2022-08-19T14:10:42;5.18;;;4.75;;
16478;SDS011;8350;52.316;10.530;2022-08-19T14:13:10;4.47;;;4.13;;
16478;SDS011;8350;52.316;10.530;2022-08-19T14:15:40;4.82;;;4.50;;
16478;SDS011;8350;52.316;10.530;2022-08-19T14:18:07;5.13;;;4.65;;
16478;SDS011;8350;52.316;10.530;2022-08-19T14:20:34;5.05;;;4.65;;
16478;SDS011;8350;52.316;10.530;2022-08-19T14:23:02;4.55;;;4.25;;
16478;SDS011;8350;52.316;10.530;2022-08-19T14:25:31;4.78;;;4.32;;
16478;SDS011;8350;52.316;10.530;2022-08-19T14:27:59;5.75;;;5.25;;
16478;SDS011;8350;52.316;10.530;2022-08-19T14:30:27;4.90;;;4.28;;
16478;SDS011;8350;52.316;10.530;2022-08-19T14:32:55;5.10;;;4.60;;
16478;SDS011;8350;52.316;10.530;2022-08-19T14:35:24;4.88;;;4.47;;
16478;SDS011;8350;52.316;10.530;2022-08-19T14:37:52;5.22;;;4.82;;
16478;SDS011;8350;52.316;10.530;2022-08-19T14:40:21;5.30;;;4.80;;
16478;SDS011;8350;52.316;10.530;2022-08-19T14:42:52;5.15;;;4.60;;
16478;SDS011;8350;52.316;10.530;2022-08-19T14:45:25;4.43;;;4.13;;
16478;SDS011;8350;52.316;10.530;2022-08-19T14:47:56;4.78;;;4.38;;
16478;SDS011;8350;52.316;10.530;2022-08-19T14:50:24;5.32;;;4.82;;
16478;SDS011;8350;52.316;10.530;2022-08-19T14:52:57;5.13;;;4.68;;
16478;SDS011;8350;52.316;10.530;2022-08-19T14:58:03;4.57;;;4.10;;
16478;SDS011;8350;52.316;10.530;2022-08-19T15:00:30;5.03;;;4.63;;